Terminal Aerodrome Forecast
Issued by NWS Riverton, WY

Home | Current Version | Previous Version | Text Only | Print | Product List | Glossary On
Versions: 1 2 3 4 5 6 7 8 9 10 11 12 13 14
000
FTUS45 KRIW 291100
TAFRIW
TAF
KRIW 291129Z 2912/3012 01006KT P6SM -RA OVC028
     FM291800 09006KT P6SM SCT030 BKN050
     FM300300 16006KT P6SM SCT050 BKN080
     FM300900 VRB05KT P6SM VCFG SCT005=

USA.gov is the U.S. government's official web portal to all federal, state and local government web resources and services.